Latest Weather Observations for Mareeba

IDQ60801

Issued at 11:02 am EST Wednesday 13 December 2017 (issued every 30 minutes, with the page automatically refreshed every 10 minutes)

About weather observations | Map of weather stations | Latest weather observations for QLD | Other Formats
Station Details ID: 031210 Name: MAREEBA AIRPORT Lat: -17.07 Lon: 145.43 Height: 471.93 m
Data from the previous 72 hours. | See also: Recent months at Mareeba
Date/Time
EST
Temp
°C
App
Temp
°C
Dew
Point
°C
Rel
Hum
%
Delta-T
°C
Wind Press
QNH
hPa
Press
MSL
hPa
Rain since
9am
mm
Dir  Spd
km/h
Gust
km/h
Spd
kts
Gust
kts
13/11:00am 27.5 26.5 16.5 51 7.0 SSE 17 22 9 12 1013.3 - 0.0
13/10:30am 26.5 24.5 15.5 50 6.8 SE 20 28 11 15 1013.8 - 0.0
13/10:00am 26.9 24.9 15.0 48 7.3 SE 19 28 10 15 1013.9 - 0.0
13/09:30am 25.9 24.1 15.6 53 6.4 SE 19 32 10 17 1014.1 - 0.0
13/09:00am 25.9 23.2 15.6 53 6.4 SE 24 37 13 20 1014.0 1010.7 0.0
13/08:30am 26.1 24.2 15.8 53 6.4 SE 20 30 11 16 1013.8 - 0.0
13/08:00am 24.6 24.0 16.6 61 5.0 SE 15 22 8 12 1013.6 - 0.0
13/07:30am 23.3 22.8 17.7 71 3.6 SE 17 20 9 11 1013.5 - 0.0
13/07:00am 21.4 21.4 18.0 81 2.2 SE 15 19 8 10 1013.5 - 0.0
13/06:30am 21.4 21.3 17.8 80 2.3 SE 15 20 8 11 1013.1 - 0.0
13/06:00am 20.3 20.2 17.9 86 1.5 SE 15 19 8 10 1012.6 1009.4 0.0
13/05:30am 20.0 20.0 18.0 88 1.3 SSE 15 17 8 9 1012.1 - 0.0
13/05:00am 20.0 20.3 18.0 88 1.3 SSE 13 19 7 10 1011.9 - 0.0
13/04:30am 19.6 21.1 17.6 88 1.3 SE 6 9 3 5 1011.9 - 0.0
13/04:00am 19.7 21.2 17.5 87 1.4 SE 6 7 3 4 1011.7 - 0.0
13/03:30am 20.2 20.1 17.8 86 1.5 SSE 15 22 8 12 1011.9 - 0.0
13/03:00am 20.3 20.5 17.7 85 1.6 SSE 13 17 7 9 1011.9 1008.6 0.0
13/02:30am 20.3 20.6 17.9 86 1.5 SSE 13 19 7 10 1012.0 - 0.0
13/02:00am 20.1 20.7 17.7 86 1.5 S 11 15 6 8 1012.2 - 0.0
13/01:30am 20.4 20.3 17.8 85 1.6 SSE 15 19 8 10 1012.6 - 0.0
13/01:00am 20.3 20.8 17.5 84 1.8 SSE 11 17 6 9 1013.2 - 0.0
13/12:30am 20.4 20.9 17.4 83 1.9 SE 11 15 6 8 1013.6 - 0.0
13/12:00am 21.0 21.5 17.4 80 2.3 ESE 11 15 6 8 1013.8 1010.5 0.0
 
Date/Time
EST
Temp
°C
App
Temp
°C
Dew
Point
°C
Rel
Hum
%
Delta-T
°C
Wind Press
QNH
hPa
Press
MSL
hPa
Rain since
9am
mm
Dir  Spd
km/h
Gust
km/h
Spd
kts
Gust
kts
12/11:30pm 21.2 20.9 17.4 79 2.4 ESE 15 22 8 12 1013.9 - 0.0
12/11:00pm 21.2 20.4 17.2 78 2.5 SE 17 28 9 15 1014.0 - 0.0
12/10:30pm 21.4 20.1 17.2 77 2.6 SE 20 26 11 14 1013.8 - 0.0
12/10:00pm 21.7 20.4 17.3 76 2.8 SSE 20 26 11 14 1013.7 - 0.0
12/09:30pm 21.9 20.7 17.1 74 3.0 SE 19 26 10 14 1013.6 - 0.0
12/09:00pm 22.3 21.8 16.8 71 3.4 SE 15 22 8 12 1013.7 1010.4 0.0
12/08:30pm 23.3 22.5 16.1 64 4.5 ESE 15 24 8 13 1013.6 - 0.0
12/08:00pm 23.7 22.0 15.7 61 4.9 SE 19 28 10 15 1013.3 - 0.0
12/07:30pm 24.1 21.6 15.1 57 5.5 SE 22 32 12 17 1013.1 - 0.0
12/07:00pm 24.8 22.2 13.7 50 6.6 SE 20 30 11 16 1012.8 - 0.0
12/06:30pm 25.6 22.6 13.8 48 7.1 SE 22 33 12 18 1012.3 - 0.0
12/06:00pm 26.6 22.7 13.3 43 8.0 SE 26 39 14 21 1011.9 1008.6 0.0
12/05:30pm 28.0 25.2 14.3 43 8.4 SE 22 30 12 16 1011.6 - 0.0
12/05:00pm 28.1 23.0 13.2 39 9.0 SE 32 39 17 21 1011.5 - 0.0
12/04:30pm 28.9 24.5 12.8 37 9.7 SE 28 39 15 21 1011.4 - 0.0
12/04:00pm 29.7 25.7 13.0 35 10.1 SE 26 37 14 20 1011.4 - 0.0
12/03:30pm 30.1 26.7 13.8 37 10.0 SE 24 37 13 20 1011.5 - 0.0
12/03:00pm 30.2 27.0 13.0 34 10.4 ESE 22 35 12 19 1011.7 1008.4 0.0
12/02:30pm 30.2 26.7 13.5 36 10.2 SSE 24 33 13 18 1011.9 - 0.0
12/02:00pm 30.5 26.7 13.7 35 10.3 ESE 26 35 14 19 1012.2 - 0.0
12/01:30pm 30.6 27.8 14.2 36 10.1 ESE 22 32 12 17 1012.6 - 0.0
12/01:00pm 29.8 26.5 12.7 35 10.3 SSE 22 32 12 17 1013.1 - 0.0
12/12:30pm 30.4 29.1 16.8 44 8.7 ESE 19 26 10 14 1013.6 - 0.0
12/12:00pm 28.6 25.8 14.4 41 8.7 SSE 22 30 12 16 1014.1 1010.8 0.0
12/11:30am 28.8 26.2 15.0 43 8.6 SSE 22 33 12 18 1014.3 - 0.0
12/11:00am 27.8 25.9 15.1 46 7.9 SSE 19 28 10 15 1014.5 - 0.0
12/10:30am 27.3 24.9 15.3 48 7.4 ESE 22 33 12 18 1014.7 - 0.0
12/10:00am 26.9 25.3 15.9 51 6.9 E 19 28 10 15 1014.8 - 0.0
12/09:30am 27.0 25.6 16.9 54 6.4 ESE 20 28 11 15 1014.7 - 0.0
12/09:00am 26.9 26.5 17.1 55 6.2 E 15 26 8 14 1014.7 1011.5 0.0
12/08:30am 25.2 24.9 17.4 62 5.0 ESE 15 20 8 11 1014.6 - 0.0
12/08:00am 23.7 24.5 17.2 67 4.1 SE 9 13 5 7 1014.6 - 0.0
12/07:30am 23.5 24.0 17.5 69 3.8 SE 11 13 6 7 1014.3 - 0.0
12/07:00am 22.3 22.0 17.4 74 3.1 SSE 15 19 8 10 1014.1 - 0.0
12/06:30am 21.3 21.1 17.7 80 2.3 SSE 15 20 8 11 1013.8 - 0.0
12/06:00am 20.3 19.7 17.5 84 1.8 SSE 17 24 9 13 1013.4 1010.1 0.0
12/05:30am 19.8 19.4 17.2 85 1.6 S 15 20 8 11 1013.4 - 0.0
12/05:00am 19.7 19.7 17.1 85 1.6 SSE 13 17 7 9 1012.7 - 0.0
12/04:30am 19.5 19.0 16.9 85 1.6 S 15 19 8 10 1012.4 - 0.0
12/04:00am 19.9 19.1 17.1 84 1.7 SSE 17 24 9 13 1012.4 - 0.0
12/03:30am 20.2 19.3 17.8 86 1.5 SE 19 24 10 13 1012.1 - 0.0
12/03:00am 20.5 20.5 18.1 86 1.5 SE 15 20 8 11 1012.1 1008.8 0.0
12/02:30am 20.8 20.1 18.2 85 1.6 SE 19 24 10 13 1012.4 - 0.0
12/02:00am 20.7 20.7 18.1 85 1.6 SE 15 20 8 11 1012.9 - 0.0
12/01:30am 20.6 20.7 18.4 87 1.4 SSE 15 20 8 11 1013.1 - 0.0
12/01:00am 20.4 21.1 18.0 86 1.5 S 11 15 6 8 1013.2 - 0.0
12/12:30am 21.0 22.3 17.6 81 2.1 SE 7 11 4 6 1013.7 - 0.0
12/12:00am 21.4 21.7 17.8 80 2.3 SE 13 20 7 11 1014.4 1011.2 0.0
 
Date/Time
EST
Temp
°C
App
Temp
°C
Dew
Point
°C
Rel
Hum
%
Delta-T
°C
Wind Press
QNH
hPa
Press
MSL
hPa
Rain since
9am
mm
Dir  Spd
km/h
Gust
km/h
Spd
kts
Gust
kts
11/11:30pm 21.5 21.9 18.1 81 2.2 ESE 13 17 7 9 1014.7 - 0.0
11/11:00pm 21.7 20.9 18.1 80 2.3 SE 19 24 10 13 1015.0 - 0.0
11/10:30pm 21.9 21.6 18.3 80 2.3 SE 17 20 9 11 1014.9 - 0.0
11/10:00pm 22.1 22.2 18.3 79 2.4 SE 15 20 8 11 1014.6 - 0.0
11/09:30pm 22.2 22.0 18.4 79 2.4 SE 17 24 9 13 1014.4 - 0.0
11/09:00pm 22.6 23.8 18.2 76 2.8 SE 9 15 5 8 1014.4 1011.2 0.0
11/08:30pm 23.3 22.5 18.0 72 3.4 SSE 19 28 10 15 1013.8 - 0.0
11/08:00pm 24.1 23.7 18.1 69 3.8 SE 17 28 9 15 1013.5 - 0.0
11/07:30pm 24.4 23.7 17.4 65 4.4 SE 17 28 9 15 1013.3 - 0.0
11/07:00pm 25.5 24.1 16.9 59 5.4 ESE 20 26 11 14 1012.9 - 0.0
11/06:30pm 26.6 24.9 16.2 52 6.5 ESE 20 28 11 15 1012.6 - 0.0
11/06:00pm 27.5 25.8 15.8 48 7.3 SSE 19 26 10 14 1012.3 1009.0 0.0
11/05:30pm 28.2 25.1 14.4 42 8.5 SSE 24 32 13 17 1012.3 - 0.0
11/05:00pm 28.6 25.6 14.8 43 8.5 SSE 24 32 13 17 1012.1 - 0.0
11/04:30pm 29.6 27.3 15.7 43 8.7 SE 22 32 12 17 1011.8 - 0.0
11/04:00pm 29.8 27.3 16.2 43 8.6 SE 24 39 13 21 1011.6 - 0.0
11/03:30pm 31.0 29.0 17.3 43 8.9 SE 24 32 13 17 1011.4 - 0.0
11/03:00pm 30.8 28.4 16.4 42 9.2 ESE 24 37 13 20 1011.5 1008.2 0.0
11/02:30pm 30.7 28.1 15.9 40 9.4 ESE 24 35 13 19 1011.6 - 0.0
11/02:00pm 30.5 28.4 16.1 41 9.1 ESE 22 32 12 17 1012.0 - 0.0
11/01:30pm 30.3 28.2 15.2 40 9.4 ESE 20 41 11 22 1012.4 - 0.0
11/01:00pm 29.5 27.9 14.9 41 9.1 ESE 17 30 9 16 1012.9 - 0.0
11/12:30pm 29.2 28.4 16.0 44 8.3 SSE 15 24 8 13 1013.4 - 0.0
11/12:00pm 29.6 28.1 15.3 41 8.9 SE 17 26 9 14 1013.8 1010.5 0.0
11/11:30am 29.5 28.5 15.6 43 8.7 SE 15 26 8 14 1014.0 - 0.0
11/11:00am 28.8 27.0 16.0 45 8.1 SSE 20 26 11 14 1014.4 - 0.0
11/10:30am 28.2 27.8 16.1 47 7.6 ESE 13 26 7 14 1014.6 - 0.0
11/10:00am 27.9 27.4 16.8 50 7.1 ESE 15 24 8 13 1014.8 - 0.0
11/09:30am 27.3 26.7 16.6 52 6.8 ESE 15 22 8 12 1014.8 - 0.0
11/09:00am 26.2 24.4 15.6 52 6.6 ESE 19 28 10 15 1015.2 1012.0 0.0
11/08:30am 25.2 25.1 17.9 64 4.7 SE 15 20 8 11 1015.4 - 0.0
11/08:00am 24.5 24.7 17.7 66 4.3 SE 13 17 7 9 1015.4 - 0.0
11/07:30am 23.7 24.5 17.4 68 4.0 ESE 9 15 5 8 1015.6 - 0.0
11/07:00am 22.5 22.7 17.6 74 3.1 SSE 13 19 7 10 1015.1 - 0.0
11/06:30am 21.3 21.9 17.7 80 2.3 SSE 11 15 6 8 1014.9 - 0.0
11/06:00am 20.5 20.4 17.9 85 1.6 SSE 15 17 8 9 1014.6 1011.4 0.0
11/05:30am 20.6 20.4 17.6 83 1.9 SSE 15 20 8 11 1014.2 - 0.0
11/05:00am 20.9 20.4 17.7 82 2.0 SE 17 22 9 12 1014.0 - 0.0
11/04:30am 20.9 20.4 17.7 82 2.0 SSE 17 20 9 11 1013.7 - 0.0
11/04:00am 20.8 20.8 18.0 84 1.8 SSE 15 19 8 10 1013.7 - 0.0
11/03:30am 20.7 21.2 18.3 86 1.5 SSE 13 19 7 10 1013.7 - 0.0
11/03:00am 20.5 20.9 18.1 86 1.5 SSE 13 17 7 9 1013.7 1010.4 0.0
11/02:30am 20.5 20.7 17.7 84 1.8 SE 13 15 7 8 1013.9 - 0.0
11/02:00am 20.5 21.1 17.7 84 1.8 SSE 11 15 6 8 1014.2 - 0.0
11/01:30am 20.8 21.0 17.6 82 2.0 SE 13 17 7 9 1014.4 - 0.0
11/01:00am 20.9 20.7 17.7 82 2.0 SSE 15 19 8 10 1014.8 - 0.0
11/12:30am 21.1 20.8 17.3 79 2.4 SSE 15 17 8 9 1014.9 - 0.0
11/12:00am 21.6 21.6 17.2 76 2.8 SE 13 20 7 11 1015.4 1012.1 0.0
 
Date/Time
EST
Temp
°C
App
Temp
°C
Dew
Point
°C
Rel
Hum
%
Delta-T
°C
Wind Press
QNH
hPa
Press
MSL
hPa
Rain since
9am
mm
Dir  Spd
km/h
Gust
km/h
Spd
kts
Gust
kts
10/11:30pm 21.4 22.4 17.8 80 2.3 SE 9 13 5 7 1015.6 - 0.0
10/11:00pm 22.1 21.6 17.9 77 2.7 SE 17 22 9 12 1015.7 - 0.0
10/10:30pm 22.5 21.7 18.1 76 2.8 SE 19 24 10 13 1015.7 - 0.0
10/10:00pm 22.4 23.0 18.6 79 2.4 SSE 13 19 7 10 1015.7 - 0.0
10/09:30pm 22.7 23.6 18.5 77 2.7 SE 11 17 6 9 1015.2 - 0.0
10/09:00pm 22.7 23.8 18.9 79 2.4 SSE 11 15 6 8 1015.0 1011.8 0.0
10/08:30pm 23.4 24.0 18.7 75 3.0 SE 13 17 7 9 1014.7 - 0.0
10/08:00pm 24.4 24.6 18.6 70 3.7 ESE 15 22 8 12 1014.6 - 0.0
10/07:30pm 24.4 25.1 17.9 67 4.2 SE 11 17 6 9 1014.3 - 0.0
10/07:00pm 25.4 26.2 18.1 64 4.7 SE 11 19 6 10 1014.1 - 0.0
10/06:30pm 26.1 25.1 18.0 61 5.2 SE 20 28 11 15 1013.9 - 0.0
10/06:00pm 27.1 24.9 17.0 54 6.4 SE 24 33 13 18 1013.7 1010.4 0.0
10/05:30pm 27.9 25.4 17.1 51 6.9 SE 26 35 14 19 1013.4 - 0.0
10/05:00pm 28.8 26.3 17.0 49 7.5 SSE 26 37 14 20 1013.2 - 0.0
10/04:30pm 30.3 29.4 18.1 48 8.0 SE 20 30 11 16 1012.9 - 0.0
10/04:00pm 30.4 28.4 16.4 43 8.9 ESE 22 32 12 17 1012.9 - 0.0
10/03:30pm 30.3 27.7 16.0 42 9.1 ESE 24 33 13 18 1012.7 - 0.0
10/03:00pm 30.6 27.7 16.2 41 9.2 SE 26 35 14 19 1012.6 1009.4 0.0
10/02:30pm 30.8 28.9 16.8 43 9.0 SE 22 33 12 18 1012.6 - 0.0
10/02:00pm 30.8 28.9 16.8 43 9.0 ESE 22 33 12 18 1012.9 - 0.0
10/01:30pm 30.7 28.0 15.5 39 9.6 ESE 24 33 13 18 1013.3 - 0.0
10/01:00pm 31.2 28.2 14.8 37 10.2 ESE 24 41 13 22 1013.6 - 0.0
10/12:30pm 30.9 29.3 16.5 42 9.2 SE 20 32 11 17 1013.8 - 0.0
10/12:00pm 30.1 29.2 16.9 45 8.5 SE 17 28 9 15 1013.8 1010.5 0.0
10/11:30am 30.1 28.8 17.2 46 8.3 ESE 20 30 11 16 1014.0 - 0.0

Other Formats:

Comma delimited format used in spreadsheet applications
http://www.bom.gov.au/fwo/IDQ60801/IDQ60801.95286.axf

JavaScript Object Notation format (JSON) in row-major order
http://www.bom.gov.au/fwo/IDQ60801/IDQ60801.95286.json